sensor_id;sensor_type;location;lat;lon;timestamp;P1;durP1;ratioP1;P2;durP2;ratioP2
7173;SDS011;3628;48.654;8.932;2022-08-07T00:00:31;2.20;;;0.80;;
7173;SDS011;3628;48.654;8.932;2022-08-07T00:02:58;1.47;;;0.73;;
7173;SDS011;3628;48.654;8.932;2022-08-07T00:05:24;2.53;;;0.90;;
7173;SDS011;3628;48.654;8.932;2022-08-07T00:07:50;1.00;;;0.70;;
7173;SDS011;3628;48.654;8.932;2022-08-07T00:10:17;3.30;;;0.70;;
7173;SDS011;3628;48.654;8.932;2022-08-07T00:12:42;2.00;;;0.50;;
7173;SDS011;3628;48.654;8.932;2022-08-07T00:15:08;1.03;;;0.50;;
7173;SDS011;3628;48.654;8.932;2022-08-07T00:17:34;1.00;;;0.60;;
7173;SDS011;3628;48.654;8.932;2022-08-07T00:20:01;1.40;;;0.70;;
7173;SDS011;3628;48.654;8.932;2022-08-07T00:22:28;0.57;;;0.57;;
7173;SDS011;3628;48.654;8.932;2022-08-07T00:24:53;0.93;;;0.43;;
7173;SDS011;3628;48.654;8.932;2022-08-07T00:27:19;1.13;;;0.60;;
7173;SDS011;3628;48.654;8.932;2022-08-07T00:29:44;2.13;;;0.50;;
7173;SDS011;3628;48.654;8.932;2022-08-07T00:32:10;1.33;;;0.60;;
7173;SDS011;3628;48.654;8.932;2022-08-07T00:34:37;2.67;;;0.53;;
7173;SDS011;3628;48.654;8.932;2022-08-07T00:37:03;0.60;;;0.30;;
7173;SDS011;3628;48.654;8.932;2022-08-07T00:39:29;0.50;;;0.40;;
7173;SDS011;3628;48.654;8.932;2022-08-07T00:41:56;0.43;;;0.43;;
7173;SDS011;3628;48.654;8.932;2022-08-07T00:44:23;2.03;;;0.60;;
7173;SDS011;3628;48.654;8.932;2022-08-07T00:46:49;0.50;;;0.50;;
7173;SDS011;3628;48.654;8.932;2022-08-07T00:49:15;1.07;;;0.60;;
7173;SDS011;3628;48.654;8.932;2022-08-07T00:51:41;1.27;;;0.63;;
7173;SDS011;3628;48.654;8.932;2022-08-07T00:54:07;1.20;;;0.50;;
7173;SDS011;3628;48.654;8.932;2022-08-07T00:56:34;1.53;;;0.93;;
7173;SDS011;3628;48.654;8.932;2022-08-07T00:59:00;1.23;;;0.70;;
7173;SDS011;3628;48.654;8.932;2022-08-07T01:01:26;3.50;;;0.80;;
7173;SDS011;3628;48.654;8.932;2022-08-07T01:03:52;1.17;;;0.63;;
7173;SDS011;3628;48.654;8.932;2022-08-07T01:06:18;0.93;;;0.57;;
7173;SDS011;3628;48.654;8.932;2022-08-07T01:08:44;3.53;;;1.07;;
7173;SDS011;3628;48.654;8.932;2022-08-07T01:11:14;3.53;;;0.80;;
7173;SDS011;3628;48.654;8.932;2022-08-07T01:13:41;1.20;;;0.53;;
7173;SDS011;3628;48.654;8.932;2022-08-07T01:16:07;2.37;;;0.73;;
7173;SDS011;3628;48.654;8.932;2022-08-07T01:18:33;1.47;;;0.70;;
7173;SDS011;3628;48.654;8.932;2022-08-07T01:23:39;1.67;;;0.80;;
7173;SDS011;3628;48.654;8.932;2022-08-07T01:26:08;1.00;;;0.50;;
7173;SDS011;3628;48.654;8.932;2022-08-07T01:28:35;0.53;;;0.40;;
7173;SDS011;3628;48.654;8.932;2022-08-07T01:31:02;1.70;;;0.53;;
7173;SDS011;3628;48.654;8.932;2022-08-07T01:33:28;1.90;;;0.67;;
7173;SDS011;3628;48.654;8.932;2022-08-07T01:35:55;0.47;;;0.47;;
7173;SDS011;3628;48.654;8.932;2022-08-07T01:38:21;1.70;;;0.60;;
7173;SDS011;3628;48.654;8.932;2022-08-07T01:40:48;2.33;;;0.60;;
7173;SDS011;3628;48.654;8.932;2022-08-07T01:43:15;1.00;;;0.70;;
7173;SDS011;3628;48.654;8.932;2022-08-07T01:45:41;0.43;;;0.43;;
7173;SDS011;3628;48.654;8.932;2022-08-07T01:48:07;1.13;;;0.60;;
7173;SDS011;3628;48.654;8.932;2022-08-07T01:50:34;2.17;;;0.60;;
7173;SDS011;3628;48.654;8.932;2022-08-07T01:53:02;1.13;;;0.73;;
7173;SDS011;3628;48.654;8.932;2022-08-07T01:55:33;0.57;;;0.53;;
7173;SDS011;3628;48.654;8.932;2022-08-07T01:58:01;1.00;;;0.70;;
7173;SDS011;3628;48.654;8.932;2022-08-07T02:00:34;1.33;;;0.73;;
7173;SDS011;3628;48.654;8.932;2022-08-07T02:03:06;0.70;;;0.70;;
7173;SDS011;3628;48.654;8.932;2022-08-07T02:05:38;0.60;;;0.50;;
7173;SDS011;3628;48.654;8.932;2022-08-07T02:08:09;2.60;;;0.50;;
7173;SDS011;3628;48.654;8.932;2022-08-07T02:10:37;0.93;;;0.60;;
7173;SDS011;3628;48.654;8.932;2022-08-07T02:13:04;1.13;;;0.67;;
7173;SDS011;3628;48.654;8.932;2022-08-07T02:15:31;2.80;;;0.67;;
7173;SDS011;3628;48.654;8.932;2022-08-07T02:17:57;0.50;;;0.50;;
7173;SDS011;3628;48.654;8.932;2022-08-07T02:20:25;1.87;;;0.80;;
7173;SDS011;3628;48.654;8.932;2022-08-07T02:22:55;3.63;;;0.70;;
7173;SDS011;3628;48.654;8.932;2022-08-07T02:25:23;1.10;;;0.70;;
7173;SDS011;3628;48.654;8.932;2022-08-07T02:27:51;0.60;;;0.60;;
7173;SDS011;3628;48.654;8.932;2022-08-07T02:30:17;1.10;;;0.63;;
7173;SDS011;3628;48.654;8.932;2022-08-07T02:32:43;0.60;;;0.60;;
7173;SDS011;3628;48.654;8.932;2022-08-07T02:35:09;0.93;;;0.80;;
7173;SDS011;3628;48.654;8.932;2022-08-07T02:37:36;1.17;;;0.77;;
7173;SDS011;3628;48.654;8.932;2022-08-07T02:40:05;2.43;;;0.70;;
7173;SDS011;3628;48.654;8.932;2022-08-07T02:42:33;1.73;;;0.60;;
7173;SDS011;3628;48.654;8.932;2022-08-07T02:45:04;3.90;;;0.70;;
7173;SDS011;3628;48.654;8.932;2022-08-07T02:47:32;0.70;;;0.70;;
7173;SDS011;3628;48.654;8.932;2022-08-07T02:49:58;0.70;;;0.50;;
7173;SDS011;3628;48.654;8.932;2022-08-07T02:52:31;3.43;;;0.60;;
7173;SDS011;3628;48.654;8.932;2022-08-07T02:55:28;0.40;;;0.40;;
7173;SDS011;3628;48.654;8.932;2022-08-07T02:57:57;0.50;;;0.50;;
7173;SDS011;3628;48.654;8.932;2022-08-07T03:00:28;0.93;;;0.70;;
7173;SDS011;3628;48.654;8.932;2022-08-07T03:02:57;3.10;;;0.67;;
7173;SDS011;3628;48.654;8.932;2022-08-07T03:05:23;1.40;;;0.70;;
7173;SDS011;3628;48.654;8.932;2022-08-07T03:07:49;0.97;;;0.60;;
7173;SDS011;3628;48.654;8.932;2022-08-07T03:10:15;3.17;;;0.73;;
7173;SDS011;3628;48.654;8.932;2022-08-07T03:12:42;0.50;;;0.40;;
7173;SDS011;3628;48.654;8.932;2022-08-07T03:15:10;0.70;;;0.70;;
7173;SDS011;3628;48.654;8.932;2022-08-07T03:17:36;0.77;;;0.60;;
7173;SDS011;3628;48.654;8.932;2022-08-07T03:20:03;2.97;;;0.50;;
7173;SDS011;3628;48.654;8.932;2022-08-07T03:22:29;1.53;;;0.40;;
7173;SDS011;3628;48.654;8.932;2022-08-07T03:24:56;0.87;;;0.50;;
7173;SDS011;3628;48.654;8.932;2022-08-07T03:27:24;4.17;;;0.97;;
7173;SDS011;3628;48.654;8.932;2022-08-07T03:29:51;0.70;;;0.70;;
7173;SDS011;3628;48.654;8.932;2022-08-07T03:35:12;0.83;;;0.60;;
7173;SDS011;3628;48.654;8.932;2022-08-07T03:37:39;0.87;;;0.40;;
7173;SDS011;3628;48.654;8.932;2022-08-07T03:40:08;1.00;;;0.60;;
7173;SDS011;3628;48.654;8.932;2022-08-07T03:42:34;1.13;;;0.60;;
7173;SDS011;3628;48.654;8.932;2022-08-07T03:45:00;0.63;;;0.60;;
7173;SDS011;3628;48.654;8.932;2022-08-07T03:47:27;0.83;;;0.50;;
7173;SDS011;3628;48.654;8.932;2022-08-07T03:49:53;0.53;;;0.53;;
7173;SDS011;3628;48.654;8.932;2022-08-07T03:52:21;1.70;;;0.67;;
7173;SDS011;3628;48.654;8.932;2022-08-07T03:54:50;1.40;;;0.67;;
7173;SDS011;3628;48.654;8.932;2022-08-07T03:57:16;1.13;;;0.80;;
7173;SDS011;3628;48.654;8.932;2022-08-07T03:59:44;3.17;;;0.67;;
7173;SDS011;3628;48.654;8.932;2022-08-07T04:02:10;2.03;;;0.90;;
7173;SDS011;3628;48.654;8.932;2022-08-07T04:04:36;0.77;;;0.60;;
7173;SDS011;3628;48.654;8.932;2022-08-07T04:07:02;1.80;;;0.50;;
7173;SDS011;3628;48.654;8.932;2022-08-07T04:09:28;1.07;;;0.70;;
7173;SDS011;3628;48.654;8.932;2022-08-07T04:11:56;1.80;;;0.60;;
7173;SDS011;3628;48.654;8.932;2022-08-07T04:14:21;1.00;;;0.60;;
7173;SDS011;3628;48.654;8.932;2022-08-07T04:16:48;1.23;;;0.43;;
7173;SDS011;3628;48.654;8.932;2022-08-07T04:19:14;4.10;;;0.90;;
7173;SDS011;3628;48.654;8.932;2022-08-07T04:21:40;0.80;;;0.60;;
7173;SDS011;3628;48.654;8.932;2022-08-07T04:24:06;2.93;;;0.90;;
7173;SDS011;3628;48.654;8.932;2022-08-07T04:26:35;0.90;;;0.73;;
7173;SDS011;3628;48.654;8.932;2022-08-07T04:29:02;1.07;;;0.77;;
7173;SDS011;3628;48.654;8.932;2022-08-07T04:31:30;0.57;;;0.50;;
7173;SDS011;3628;48.654;8.932;2022-08-07T04:33:56;2.37;;;0.97;;
7173;SDS011;3628;48.654;8.932;2022-08-07T04:36:23;1.10;;;0.67;;
7173;SDS011;3628;48.654;8.932;2022-08-07T04:38:49;0.90;;;0.70;;
7173;SDS011;3628;48.654;8.932;2022-08-07T04:41:15;0.90;;;0.67;;
7173;SDS011;3628;48.654;8.932;2022-08-07T04:43:41;2.57;;;0.80;;
7173;SDS011;3628;48.654;8.932;2022-08-07T04:46:17;1.13;;;0.60;;
7173;SDS011;3628;48.654;8.932;2022-08-07T04:48:59;0.70;;;0.60;;
7173;SDS011;3628;48.654;8.932;2022-08-07T04:59:35;1.10;;;0.60;;
7173;SDS011;3628;48.654;8.932;2022-08-07T05:02:09;0.50;;;0.50;;
7173;SDS011;3628;48.654;8.932;2022-08-07T05:07:18;2.57;;;0.60;;
7173;SDS011;3628;48.654;8.932;2022-08-07T05:10:10;0.97;;;0.53;;
7173;SDS011;3628;48.654;8.932;2022-08-07T05:12:38;4.10;;;0.60;;
7173;SDS011;3628;48.654;8.932;2022-08-07T05:15:11;0.70;;;0.70;;
7173;SDS011;3628;48.654;8.932;2022-08-07T05:17:46;0.50;;;0.50;;
7173;SDS011;3628;48.654;8.932;2022-08-07T05:20:15;0.40;;;0.40;;
7173;SDS011;3628;48.654;8.932;2022-08-07T05:22:45;0.93;;;0.70;;
7173;SDS011;3628;48.654;8.932;2022-08-07T05:25:13;2.50;;;0.80;;
7173;SDS011;3628;48.654;8.932;2022-08-07T05:27:40;1.57;;;0.70;;
7173;SDS011;3628;48.654;8.932;2022-08-07T05:30:07;1.27;;;0.70;;
7173;SDS011;3628;48.654;8.932;2022-08-07T05:32:33;1.80;;;0.60;;
7173;SDS011;3628;48.654;8.932;2022-08-07T05:35:02;2.00;;;0.80;;
7173;SDS011;3628;48.654;8.932;2022-08-07T05:37:28;0.80;;;0.80;;
7173;SDS011;3628;48.654;8.932;2022-08-07T05:39:55;1.70;;;0.80;;
7173;SDS011;3628;48.654;8.932;2022-08-07T05:42:21;0.33;;;0.33;;
7173;SDS011;3628;48.654;8.932;2022-08-07T05:44:47;1.43;;;0.50;;
7173;SDS011;3628;48.654;8.932;2022-08-07T05:47:14;0.70;;;0.50;;
7173;SDS011;3628;48.654;8.932;2022-08-07T05:49:44;0.60;;;0.60;;
7173;SDS011;3628;48.654;8.932;2022-08-07T05:52:12;0.60;;;0.60;;
7173;SDS011;3628;48.654;8.932;2022-08-07T05:54:38;0.97;;;0.70;;
7173;SDS011;3628;48.654;8.932;2022-08-07T05:57:04;0.60;;;0.50;;
7173;SDS011;3628;48.654;8.932;2022-08-07T05:59:31;4.60;;;0.70;;
7173;SDS011;3628;48.654;8.932;2022-08-07T06:02:00;0.90;;;0.70;;
7173;SDS011;3628;48.654;8.932;2022-08-07T06:04:27;0.93;;;0.50;;
7173;SDS011;3628;48.654;8.932;2022-08-07T06:06:53;0.50;;;0.50;;
7173;SDS011;3628;48.654;8.932;2022-08-07T06:09:20;0.50;;;0.50;;
7173;SDS011;3628;48.654;8.932;2022-08-07T06:11:45;1.40;;;0.60;;
7173;SDS011;3628;48.654;8.932;2022-08-07T06:14:11;3.50;;;0.70;;
7173;SDS011;3628;48.654;8.932;2022-08-07T06:16:37;1.20;;;0.57;;
7173;SDS011;3628;48.654;8.932;2022-08-07T06:19:04;1.30;;;0.80;;
7173;SDS011;3628;48.654;8.932;2022-08-07T06:21:30;0.93;;;0.70;;
7173;SDS011;3628;48.654;8.932;2022-08-07T06:23:57;0.80;;;0.80;;
7173;SDS011;3628;48.654;8.932;2022-08-07T06:26:22;1.10;;;0.90;;
7173;SDS011;3628;48.654;8.932;2022-08-07T06:28:50;1.57;;;1.20;;
7173;SDS011;3628;48.654;8.932;2022-08-07T06:31:20;1.90;;;1.05;;
7173;SDS011;3628;48.654;8.932;2022-08-07T06:33:46;1.75;;;1.27;;
7173;SDS011;3628;48.654;8.932;2022-08-07T06:36:12;1.95;;;1.45;;
7173;SDS011;3628;48.654;8.932;2022-08-07T06:38:39;2.65;;;1.15;;
7173;SDS011;3628;48.654;8.932;2022-08-07T06:41:07;1.55;;;1.45;;
7173;SDS011;3628;48.654;8.932;2022-08-07T06:43:36;2.10;;;1.40;;
7173;SDS011;3628;48.654;8.932;2022-08-07T06:46:04;1.50;;;1.40;;
7173;SDS011;3628;48.654;8.932;2022-08-07T06:48:31;2.30;;;1.48;;
7173;SDS011;3628;48.654;8.932;2022-08-07T06:50:57;1.30;;;1.20;;
7173;SDS011;3628;48.654;8.932;2022-08-07T06:53:28;1.73;;;1.45;;
7173;SDS011;3628;48.654;8.932;2022-08-07T06:55:54;1.98;;;1.20;;
7173;SDS011;3628;48.654;8.932;2022-08-07T06:58:21;1.38;;;1.27;;
7173;SDS011;3628;48.654;8.932;2022-08-07T07:00:47;3.20;;;1.30;;
7173;SDS011;3628;48.654;8.932;2022-08-07T07:03:14;3.83;;;2.00;;
7173;SDS011;3628;48.654;8.932;2022-08-07T07:05:40;1.48;;;1.30;;
7173;SDS011;3628;48.654;8.932;2022-08-07T07:08:07;3.67;;;1.58;;
7173;SDS011;3628;48.654;8.932;2022-08-07T07:10:33;2.08;;;1.67;;
7173;SDS011;3628;48.654;8.932;2022-08-07T07:13:10;1.60;;;1.50;;
7173;SDS011;3628;48.654;8.932;2022-08-07T07:15:46;2.33;;;1.45;;
7173;SDS011;3628;48.654;8.932;2022-08-07T07:20:52;1.58;;;1.48;;
7173;SDS011;3628;48.654;8.932;2022-08-07T07:23:21;1.60;;;1.50;;
7173;SDS011;3628;48.654;8.932;2022-08-07T07:25:51;1.40;;;1.30;;
7173;SDS011;3628;48.654;8.932;2022-08-07T07:28:24;1.38;;;1.30;;
7173;SDS011;3628;48.654;8.932;2022-08-07T07:30:58;1.30;;;1.20;;
7173;SDS011;3628;48.654;8.932;2022-08-07T07:33:27;1.58;;;1.45;;
7173;SDS011;3628;48.654;8.932;2022-08-07T07:35:56;2.45;;;1.40;;
7173;SDS011;3628;48.654;8.932;2022-08-07T07:38:22;1.88;;;1.30;;
7173;SDS011;3628;48.654;8.932;2022-08-07T07:40:55;2.40;;;1.33;;
7173;SDS011;3628;48.654;8.932;2022-08-07T07:43:24;1.40;;;1.30;;
7173;SDS011;3628;48.654;8.932;2022-08-07T07:45:51;1.58;;;1.10;;
7173;SDS011;3628;48.654;8.932;2022-08-07T07:48:21;1.20;;;1.10;;
7173;SDS011;3628;48.654;8.932;2022-08-07T07:50:49;1.17;;;1.10;;
7173;SDS011;3628;48.654;8.932;2022-08-07T07:53:16;1.75;;;1.13;;
7173;SDS011;3628;48.654;8.932;2022-08-07T07:55:44;1.15;;;1.02;;
7173;SDS011;3628;48.654;8.932;2022-08-07T07:58:10;0.88;;;0.88;;
7173;SDS011;3628;48.654;8.932;2022-08-07T08:00:38;1.33;;;0.82;;
7173;SDS011;3628;48.654;8.932;2022-08-07T08:03:05;1.00;;;1.00;;
7173;SDS011;3628;48.654;8.932;2022-08-07T08:05:37;1.50;;;1.00;;
7173;SDS011;3628;48.654;8.932;2022-08-07T08:08:04;3.72;;;1.10;;
7173;SDS011;3628;48.654;8.932;2022-08-07T08:10:32;0.82;;;0.82;;
7173;SDS011;3628;48.654;8.932;2022-08-07T08:12:58;0.68;;;0.68;;
7173;SDS011;3628;48.654;8.932;2022-08-07T08:15:26;1.65;;;0.90;;
7173;SDS011;3628;48.654;8.932;2022-08-07T08:17:55;0.90;;;0.90;;
7173;SDS011;3628;48.654;8.932;2022-08-07T08:20:23;0.80;;;0.80;;
7173;SDS011;3628;48.654;8.932;2022-08-07T08:22:50;1.52;;;0.82;;
7173;SDS011;3628;48.654;8.932;2022-08-07T08:25:37;1.42;;;0.70;;
7173;SDS011;3628;48.654;8.932;2022-08-07T08:28:23;1.55;;;0.80;;
7173;SDS011;3628;48.654;8.932;2022-08-07T08:30:59;3.70;;;0.70;;
7173;SDS011;3628;48.654;8.932;2022-08-07T08:33:32;1.38;;;0.60;;
7173;SDS011;3628;48.654;8.932;2022-08-07T08:36:00;1.52;;;0.65;;
7173;SDS011;3628;48.654;8.932;2022-08-07T08:38:31;1.73;;;0.70;;
7173;SDS011;3628;48.654;8.932;2022-08-07T08:41:04;2.25;;;0.70;;
7173;SDS011;3628;48.654;8.932;2022-08-07T08:46:30;0.75;;;0.75;;
7173;SDS011;3628;48.654;8.932;2022-08-07T08:49:03;1.08;;;0.63;;
7173;SDS011;3628;48.654;8.932;2022-08-07T08:54:33;0.50;;;0.50;;
7173;SDS011;3628;48.654;8.932;2022-08-07T08:57:06;0.57;;;0.57;;
7173;SDS011;3628;48.654;8.932;2022-08-07T09:02:28;0.52;;;0.52;;
7173;SDS011;3628;48.654;8.932;2022-08-07T09:05:18;0.68;;;0.45;;
7173;SDS011;3628;48.654;8.932;2022-08-07T09:10:43;0.93;;;0.60;;
7173;SDS011;3628;48.654;8.932;2022-08-07T09:27:28;1.30;;;0.65;;
7173;SDS011;3628;48.654;8.932;2022-08-07T09:29:55;1.05;;;0.70;;
7173;SDS011;3628;48.654;8.932;2022-08-07T09:35:39;0.73;;;0.63;;
7173;SDS011;3628;48.654;8.932;2022-08-07T09:38:15;1.17;;;0.70;;
7173;SDS011;3628;48.654;8.932;2022-08-07T09:44:06;0.65;;;0.40;;
7173;SDS011;3628;48.654;8.932;2022-08-07T09:46:46;0.52;;;0.52;;
7173;SDS011;3628;48.654;8.932;2022-08-07T09:49:42;1.08;;;0.70;;
7173;SDS011;3628;48.654;8.932;2022-08-07T10:00:42;2.30;;;0.50;;
7173;SDS011;3628;48.654;8.932;2022-08-07T10:11:50;0.40;;;0.40;;
7173;SDS011;3628;48.654;8.932;2022-08-07T10:20:15;0.50;;;0.50;;
7173;SDS011;3628;48.654;8.932;2022-08-07T10:23:21;0.63;;;0.50;;
7173;SDS011;3628;48.654;8.932;2022-08-07T10:37:12;0.75;;;0.60;;
7173;SDS011;3628;48.654;8.932;2022-08-07T10:39:49;1.42;;;0.50;;
7173;SDS011;3628;48.654;8.932;2022-08-07T10:50:38;0.50;;;0.50;;
7173;SDS011;3628;48.654;8.932;2022-08-07T10:53:23;1.00;;;0.60;;
7173;SDS011;3628;48.654;8.932;2022-08-07T10:56:10;0.60;;;0.40;;
7173;SDS011;3628;48.654;8.932;2022-08-07T11:01:24;0.77;;;0.50;;
7173;SDS011;3628;48.654;8.932;2022-08-07T11:04:23;0.77;;;0.40;;
7173;SDS011;3628;48.654;8.932;2022-08-07T11:10:23;0.40;;;0.38;;
7173;SDS011;3628;48.654;8.932;2022-08-07T11:12:57;3.25;;;0.40;;
7173;SDS011;3628;48.654;8.932;2022-08-07T11:15:38;0.35;;;0.30;;
7173;SDS011;3628;48.654;8.932;2022-08-07T11:18:17;0.73;;;0.40;;
7173;SDS011;3628;48.654;8.932;2022-08-07T11:21:06;1.42;;;0.50;;
7173;SDS011;3628;48.654;8.932;2022-08-07T11:31:46;0.60;;;0.60;;
7173;SDS011;3628;48.654;8.932;2022-08-07T11:34:23;0.30;;;0.30;;
7173;SDS011;3628;48.654;8.932;2022-08-07T11:42:55;0.75;;;0.50;;
7173;SDS011;3628;48.654;8.932;2022-08-07T11:48:41;0.32;;;0.32;;
7173;SDS011;3628;48.654;8.932;2022-08-07T11:51:20;0.40;;;0.40;;
7173;SDS011;3628;48.654;8.932;2022-08-07T11:59:40;0.90;;;0.50;;
7173;SDS011;3628;48.654;8.932;2022-08-07T12:11:26;0.30;;;0.30;;
7173;SDS011;3628;48.654;8.932;2022-08-07T12:14:14;0.30;;;0.30;;
7173;SDS011;3628;48.654;8.932;2022-08-07T12:16:47;0.88;;;0.63;;
7173;SDS011;3628;48.654;8.932;2022-08-07T12:19:30;0.50;;;0.45;;
7173;SDS011;3628;48.654;8.932;2022-08-07T12:22:16;0.43;;;0.43;;
7173;SDS011;3628;48.654;8.932;2022-08-07T12:27:38;0.60;;;0.50;;
7173;SDS011;3628;48.654;8.932;2022-08-07T12:30:08;0.55;;;0.45;;
7173;SDS011;3628;48.654;8.932;2022-08-07T12:32:41;0.50;;;0.40;;
7173;SDS011;3628;48.654;8.932;2022-08-07T12:35:12;0.88;;;0.50;;
7173;SDS011;3628;48.654;8.932;2022-08-07T12:37:40;0.55;;;0.55;;
7173;SDS011;3628;48.654;8.932;2022-08-07T12:40:06;0.57;;;0.47;;
7173;SDS011;3628;48.654;8.932;2022-08-07T12:42:34;0.30;;;0.30;;
7173;SDS011;3628;48.654;8.932;2022-08-07T12:45:06;0.80;;;0.50;;
7173;SDS011;3628;48.654;8.932;2022-08-07T12:47:45;0.73;;;0.68;;
7173;SDS011;3628;48.654;8.932;2022-08-07T12:50:35;0.75;;;0.40;;
7173;SDS011;3628;48.654;8.932;2022-08-07T12:58:25;0.85;;;0.40;;
7173;SDS011;3628;48.654;8.932;2022-08-07T13:01:15;1.65;;;0.40;;
7173;SDS011;3628;48.654;8.932;2022-08-07T13:18:44;0.93;;;0.47;;
7173;SDS011;3628;48.654;8.932;2022-08-07T13:26:48;1.17;;;0.50;;
7173;SDS011;3628;48.654;8.932;2022-08-07T13:32:14;0.40;;;0.40;;
7173;SDS011;3628;48.654;8.932;2022-08-07T13:34:55;3.35;;;0.60;;
7173;SDS011;3628;48.654;8.932;2022-08-07T13:42:43;1.70;;;0.43;;
7173;SDS011;3628;48.654;8.932;2022-08-07T13:45:15;3.08;;;1.63;;
7173;SDS011;3628;48.654;8.932;2022-08-07T13:47:44;1.80;;;1.35;;
7173;SDS011;3628;48.654;8.932;2022-08-07T13:50:12;2.45;;;0.90;;
7173;SDS011;3628;48.654;8.932;2022-08-07T13:52:39;0.40;;;0.40;;
7173;SDS011;3628;48.654;8.932;2022-08-07T13:55:15;0.40;;;0.40;;
7173;SDS011;3628;48.654;8.932;2022-08-07T13:57:45;0.50;;;0.50;;
7173;SDS011;3628;48.654;8.932;2022-08-07T14:00:15;0.40;;;0.40;;
7173;SDS011;3628;48.654;8.932;2022-08-07T14:02:43;2.40;;;0.40;;
7173;SDS011;3628;48.654;8.932;2022-08-07T14:05:12;0.45;;;0.43;;
7173;SDS011;3628;48.654;8.932;2022-08-07T14:07:40;0.80;;;0.50;;
7173;SDS011;3628;48.654;8.932;2022-08-07T14:10:09;1.45;;;1.10;;
7173;SDS011;3628;48.654;8.932;2022-08-07T14:12:48;0.50;;;0.50;;
7173;SDS011;3628;48.654;8.932;2022-08-07T14:15:40;1.25;;;0.50;;
7173;SDS011;3628;48.654;8.932;2022-08-07T14:18:15;0.60;;;0.57;;
7173;SDS011;3628;48.654;8.932;2022-08-07T14:20:46;0.57;;;0.50;;
7173;SDS011;3628;48.654;8.932;2022-08-07T14:23:23;0.43;;;0.43;;
7173;SDS011;3628;48.654;8.932;2022-08-07T14:25:59;0.50;;;0.50;;
7173;SDS011;3628;48.654;8.932;2022-08-07T14:28:29;1.25;;;0.63;;
7173;SDS011;3628;48.654;8.932;2022-08-07T14:30:55;0.50;;;0.50;;
7173;SDS011;3628;48.654;8.932;2022-08-07T14:33:22;1.02;;;0.80;;
7173;SDS011;3628;48.654;8.932;2022-08-07T14:35:52;2.97;;;0.57;;
7173;SDS011;3628;48.654;8.932;2022-08-07T14:38:21;0.70;;;0.52;;
7173;SDS011;3628;48.654;8.932;2022-08-07T14:40:52;0.90;;;0.50;;
7173;SDS011;3628;48.654;8.932;2022-08-07T14:43:20;0.70;;;0.50;;
7173;SDS011;3628;48.654;8.932;2022-08-07T14:45:48;1.08;;;0.50;;
7173;SDS011;3628;48.654;8.932;2022-08-07T14:48:21;0.50;;;0.50;;
7173;SDS011;3628;48.654;8.932;2022-08-07T14:50:52;0.77;;;0.47;;
7173;SDS011;3628;48.654;8.932;2022-08-07T14:53:20;1.02;;;0.98;;
7173;SDS011;3628;48.654;8.932;2022-08-07T14:55:48;0.93;;;0.50;;
7173;SDS011;3628;48.654;8.932;2022-08-07T14:58:14;0.40;;;0.40;;
7173;SDS011;3628;48.654;8.932;2022-08-07T15:00:42;1.95;;;0.40;;
7173;SDS011;3628;48.654;8.932;2022-08-07T15:03:11;0.45;;;0.45;;
7173;SDS011;3628;48.654;8.932;2022-08-07T15:05:39;0.70;;;0.70;;
7173;SDS011;3628;48.654;8.932;2022-08-07T15:08:06;1.08;;;0.88;;
7173;SDS011;3628;48.654;8.932;2022-08-07T15:10:34;0.60;;;0.50;;
7173;SDS011;3628;48.654;8.932;2022-08-07T15:13:05;0.47;;;0.47;;
7173;SDS011;3628;48.654;8.932;2022-08-07T15:15:40;1.05;;;0.50;;
7173;SDS011;3628;48.654;8.932;2022-08-07T15:18:11;1.08;;;0.52;;
7173;SDS011;3628;48.654;8.932;2022-08-07T15:20:41;1.75;;;0.60;;
7173;SDS011;3628;48.654;8.932;2022-08-07T15:23:14;1.20;;;0.65;;
7173;SDS011;3628;48.654;8.932;2022-08-07T15:25:49;0.70;;;0.70;;
7173;SDS011;3628;48.654;8.932;2022-08-07T15:28:19;1.52;;;0.52;;
7173;SDS011;3628;48.654;8.932;2022-08-07T15:30:48;0.60;;;0.60;;
7173;SDS011;3628;48.654;8.932;2022-08-07T15:33:16;0.82;;;0.70;;
7173;SDS011;3628;48.654;8.932;2022-08-07T15:35:43;1.00;;;0.60;;
7173;SDS011;3628;48.654;8.932;2022-08-07T15:38:15;0.88;;;0.88;;
7173;SDS011;3628;48.654;8.932;2022-08-07T15:40:45;0.98;;;0.52;;
7173;SDS011;3628;48.654;8.932;2022-08-07T15:43:16;1.08;;;0.50;;
7173;SDS011;3628;48.654;8.932;2022-08-07T15:45:46;1.58;;;0.50;;
7173;SDS011;3628;48.654;8.932;2022-08-07T15:50:42;1.05;;;0.70;;
7173;SDS011;3628;48.654;8.932;2022-08-07T15:53:18;0.80;;;0.80;;
7173;SDS011;3628;48.654;8.932;2022-08-07T15:55:59;2.97;;;0.68;;
7173;SDS011;3628;48.654;8.932;2022-08-07T15:58:31;0.50;;;0.50;;
7173;SDS011;3628;48.654;8.932;2022-08-07T16:01:04;0.88;;;0.57;;
7173;SDS011;3628;48.654;8.932;2022-08-07T16:03:37;0.63;;;0.50;;
7173;SDS011;3628;48.654;8.932;2022-08-07T16:06:04;0.52;;;0.52;;
7173;SDS011;3628;48.654;8.932;2022-08-07T16:08:31;0.98;;;0.50;;
7173;SDS011;3628;48.654;8.932;2022-08-07T16:11:07;0.90;;;0.60;;
7173;SDS011;3628;48.654;8.932;2022-08-07T16:25:02;0.88;;;0.80;;
7173;SDS011;3628;48.654;8.932;2022-08-07T16:27:58;0.65;;;0.30;;
7173;SDS011;3628;48.654;8.932;2022-08-07T16:31:27;0.40;;;0.40;;
7173;SDS011;3628;48.654;8.932;2022-08-07T16:33:51;3.03;;;0.70;;
7173;SDS011;3628;48.654;8.932;2022-08-07T16:42:34;0.68;;;0.65;;
7173;SDS011;3628;48.654;8.932;2022-08-07T16:53:46;0.70;;;0.70;;
7173;SDS011;3628;48.654;8.932;2022-08-07T16:56:17;0.57;;;0.57;;
7173;SDS011;3628;48.654;8.932;2022-08-07T17:12:40;0.45;;;0.45;;
7173;SDS011;3628;48.654;8.932;2022-08-07T17:15:40;0.47;;;0.47;;
7173;SDS011;3628;48.654;8.932;2022-08-07T17:18:23;2.83;;;2.20;;
7173;SDS011;3628;48.654;8.932;2022-08-07T17:21:14;1.77;;;1.63;;
7173;SDS011;3628;48.654;8.932;2022-08-07T17:26:44;1.63;;;0.68;;
7173;SDS011;3628;48.654;8.932;2022-08-07T17:32:24;0.63;;;0.60;;
7173;SDS011;3628;48.654;8.932;2022-08-07T17:35:06;1.08;;;0.60;;
7173;SDS011;3628;48.654;8.932;2022-08-07T17:40:18;0.52;;;0.52;;
7173;SDS011;3628;48.654;8.932;2022-08-07T17:43:01;0.70;;;0.68;;
7173;SDS011;3628;48.654;8.932;2022-08-07T17:45:36;1.35;;;0.50;;
7173;SDS011;3628;48.654;8.932;2022-08-07T17:48:14;3.03;;;1.10;;
7173;SDS011;3628;48.654;8.932;2022-08-07T17:53:26;1.95;;;0.63;;
7173;SDS011;3628;48.654;8.932;2022-08-07T17:56:10;0.70;;;0.63;;
7173;SDS011;3628;48.654;8.932;2022-08-07T17:58:56;0.57;;;0.57;;
7173;SDS011;3628;48.654;8.932;2022-08-07T18:01:34;0.50;;;0.50;;
7173;SDS011;3628;48.654;8.932;2022-08-07T18:09:31;2.10;;;0.50;;
7173;SDS011;3628;48.654;8.932;2022-08-07T18:12:09;0.95;;;0.68;;
7173;SDS011;3628;48.654;8.932;2022-08-07T18:15:18;3.90;;;0.63;;
7173;SDS011;3628;48.654;8.932;2022-08-07T18:17:58;0.50;;;0.50;;
7173;SDS011;3628;48.654;8.932;2022-08-07T18:20:29;0.65;;;0.63;;
7173;SDS011;3628;48.654;8.932;2022-08-07T18:23:08;1.15;;;0.50;;
7173;SDS011;3628;48.654;8.932;2022-08-07T18:25:41;2.53;;;1.17;;
7173;SDS011;3628;48.654;8.932;2022-08-07T18:36:27;0.98;;;0.50;;
7173;SDS011;3628;48.654;8.932;2022-08-07T18:39:09;0.50;;;0.50;;
7173;SDS011;3628;48.654;8.932;2022-08-07T18:55:32;1.45;;;0.73;;
7173;SDS011;3628;48.654;8.932;2022-08-07T18:58:21;1.33;;;0.73;;
7173;SDS011;3628;48.654;8.932;2022-08-07T19:00:59;0.40;;;0.40;;
7173;SDS011;3628;48.654;8.932;2022-08-07T19:09:10;0.70;;;0.70;;
7173;SDS011;3628;48.654;8.932;2022-08-07T19:14:22;1.00;;;0.70;;
7173;SDS011;3628;48.654;8.932;2022-08-07T19:17:02;0.85;;;0.70;;
7173;SDS011;3628;48.654;8.932;2022-08-07T19:22:26;0.80;;;0.50;;
7173;SDS011;3628;48.654;8.932;2022-08-07T19:25:00;1.00;;;0.60;;
7173;SDS011;3628;48.654;8.932;2022-08-07T19:27:29;0.80;;;0.80;;
7173;SDS011;3628;48.654;8.932;2022-08-07T19:30:00;1.27;;;0.85;;
7173;SDS011;3628;48.654;8.932;2022-08-07T19:32:31;3.00;;;0.88;;
7173;SDS011;3628;48.654;8.932;2022-08-07T19:35:00;1.27;;;0.68;;
7173;SDS011;3628;48.654;8.932;2022-08-07T19:37:29;2.78;;;0.77;;
7173;SDS011;3628;48.654;8.932;2022-08-07T19:39:57;0.60;;;0.60;;
7173;SDS011;3628;48.654;8.932;2022-08-07T19:42:26;2.60;;;0.65;;
7173;SDS011;3628;48.654;8.932;2022-08-07T19:44:54;5.25;;;0.90;;
7173;SDS011;3628;48.654;8.932;2022-08-07T19:47:24;2.33;;;0.90;;
7173;SDS011;3628;48.654;8.932;2022-08-07T19:49:54;1.48;;;0.60;;
7173;SDS011;3628;48.654;8.932;2022-08-07T19:52:23;0.65;;;0.60;;
7173;SDS011;3628;48.654;8.932;2022-08-07T19:54:51;0.95;;;0.70;;
7173;SDS011;3628;48.654;8.932;2022-08-07T19:57:21;2.50;;;0.77;;
7173;SDS011;3628;48.654;8.932;2022-08-07T20:00:07;1.55;;;0.70;;